LFRL 210400Z AUTO 06003KT 030V100 9999 OVC036 04/01 Q1039

ElémentsDécodage
LFRL Station météo située sur l'aérodrome de LANVEOC Poulmic
210400Z émis le 21 du mois à 04h00 UTC
AUTO Bulletin édité par un automate
06003KT vent du 060°, 03 noeuds
030V100 vent de direction variable entre 030° et 100°
9999 visibilité horizontale supérieure à 10 Km
OVC036 couverture nuageuse totale (8/8) à 3600 pieds
04/01 température 04°C, point de rosée 01°C
 soit une humidité relative de 81%
Q1039 la pression au niveau de la mer (QNH) est de 1039 hPa